Pagrindinis puslapis
METAR-TAF:

METAR-TAF

Oro uostai :

Umeo, Švedija

platuma: 63-48N, ilguma: 020-17E, Aukštis: 7 m

Dabartinis oras

Ataskaita buvo paskelbta 13 minutes, ne 02:50 UTC
Ramus vėjas
Temperatūra 12°C
Drėgmė 100%
Slėgis 1014 hPa
Matomumas: 8000 m

METAR: ESNU 250250Z AUTO 00000KT 8000 NCD 12/12 Q1014

Laikas: 05:03 (03:03 UTC)

Prognozė

Ataskaita buvo paskelbta 33 minutes, ne 02:30 UTC
Prognozė galioja nuo 25 metu 03 UTC su 25 metu 12 UTC
Vėjas 3 kt iš Pietų/Pietryčių
Matomumas 10 km arba daugiau
nėra debesų žemiau 1500 m ir nėra kamuolinių lietaus debesų
Tikimybė 40%
nuo 25 metu 03 UTC su 25 metu 05 UTC
Matomumas: 0300 m
Rūkas lopais

TAF: ESNU 250230Z 2503/2512 16003KT CAVOK PROB40 2503/2505 0300 BCFG

Orai ataskaitas ir orų prognozės (METAR, TAF).

turimą stotys yra geltonos ir raudonos taškus žemėlapyje.

Perkelti pele per norėdami pamatyti stoties vardą.

Tada spustelėkite, norėdami matyti oro stebėjimo ir prognozės.

Norėdami pakeisti žemėlapį: spustelėkite ant žalios mygtukų su juodo kryžiaus žemyn,; žalią mygtuką su brūkšneliu, jei norite nutolinti; arba žalių rodyklių gretimoms žemėlapius.


METAR-TAF: